Main page
METAR-TAF:

METAR-TAF

Airports :

Lechfeld Air Base

Lechfeld, Germany

latitude: 48-11N, longitude: 010-52E, elevation: 555 m

Current weather observation

The report was made 44 minutes ago, at 08:20 UTC
Wind 8 kt from the South/Southwest
Temperature 22°C
Humidity 57%
Pressure 1015 hPa
Visibility 10 km or more
Scattered clouds at a height of 35000 ft

METAR: ETSL 210820Z 21008KT 9999 SCT350 22/13 Q1015 BLU+BLU+

Time: 11:04 (09:04 UTC)

Forecast

The report was made 19 hours and 39 minutes ago, at 13:25 UTC
Forecast valid from 20 at 14 UTC to 20 at 23 UTC
Wind 3 kt from variable directions
Visibility 10 km or more
Few clouds at a height of 5000 ft

TAF: ETSL 201325Z 2014/2023 VRB03KT 9999 NSW FEW050 BY ETGL

Weather observations and forecasts of more than 4000 airports (METAR and TAF reports).

The available stations are represented by yellow and red dots on the map.

Hover mouse over dot to see the name of the station.

Then click to see weather observations and forecasts.

To change the map : click on the green buttons with a black cross to zoom in, on the green button with a dash to zoom out, or on the green arrows for adjacent maps.


METAR-TAF: